sensor_id;sensor_type;location;lat;lon;timestamp;temperature;humidity
27657;DHT22;15066;46.134;9.476;2022-09-09T00:01:49;19.70;99.90
27657;DHT22;15066;46.134;9.476;2022-09-09T00:04:25;19.60;99.90
27657;DHT22;15066;46.134;9.476;2022-09-09T00:09:47;19.60;99.90
27657;DHT22;15066;46.134;9.476;2022-09-09T00:15:10;19.60;99.90
27657;DHT22;15066;46.134;9.476;2022-09-09T00:20:16;19.60;99.90
27657;DHT22;15066;46.134;9.476;2022-09-09T00:25:37;19.40;99.90
27657;DHT22;15066;46.134;9.476;2022-09-09T00:28:10;19.40;99.90
27657;DHT22;15066;46.134;9.476;2022-09-09T00:30:35;19.40;99.90
27657;DHT22;15066;46.134;9.476;2022-09-09T00:33:12;19.40;99.90
27657;DHT22;15066;46.134;9.476;2022-09-09T00:36:00;19.50;99.90
27657;DHT22;15066;46.134;9.476;2022-09-09T00:38:38;19.50;99.90
27657;DHT22;15066;46.134;9.476;2022-09-09T00:41:11;19.40;99.90
27657;DHT22;15066;46.134;9.476;2022-09-09T00:43:40;19.40;99.90
27657;DHT22;15066;46.134;9.476;2022-09-09T00:51:52;19.50;99.90
27657;DHT22;15066;46.134;9.476;2022-09-09T00:54:40;19.50;99.90
27657;DHT22;15066;46.134;9.476;2022-09-09T00:57:38;19.50;99.90
27657;DHT22;15066;46.134;9.476;2022-09-09T01:08:05;19.10;99.90
27657;DHT22;15066;46.134;9.476;2022-09-09T01:10:39;19.20;99.90
27657;DHT22;15066;46.134;9.476;2022-09-09T01:13:04;19.20;99.90
27657;DHT22;15066;46.134;9.476;2022-09-09T01:15:34;19.20;99.90
27657;DHT22;15066;46.134;9.476;2022-09-09T01:18:08;19.20;99.90
27657;DHT22;15066;46.134;9.476;2022-09-09T01:20:49;19.20;99.90
27657;DHT22;15066;46.134;9.476;2022-09-09T01:23:36;19.30;99.90
27657;DHT22;15066;46.134;9.476;2022-09-09T01:28:49;19.30;99.90
27657;DHT22;15066;46.134;9.476;2022-09-09T01:31:34;19.30;99.90
27657;DHT22;15066;46.134;9.476;2022-09-09T01:33:52;19.20;99.90
27657;DHT22;15066;46.134;9.476;2022-09-09T01:36:35;19.10;99.90
27657;DHT22;15066;46.134;9.476;2022-09-09T01:39:03;19.20;99.90
27657;DHT22;15066;46.134;9.476;2022-09-09T01:41:31;19.20;99.90
27657;DHT22;15066;46.134;9.476;2022-09-09T01:43:59;19.20;99.90
27657;DHT22;15066;46.134;9.476;2022-09-09T01:46:28;19.20;99.90
27657;DHT22;15066;46.134;9.476;2022-09-09T01:48:56;19.30;99.90
27657;DHT22;15066;46.134;9.476;2022-09-09T01:51:24;19.20;99.90
27657;DHT22;15066;46.134;9.476;2022-09-09T01:53:52;19.30;99.90
27657;DHT22;15066;46.134;9.476;2022-09-09T01:59:23;19.30;99.90
27657;DHT22;15066;46.134;9.476;2022-09-09T02:04:43;19.30;99.90
27657;DHT22;15066;46.134;9.476;2022-09-09T02:07:31;19.30;99.90
27657;DHT22;15066;46.134;9.476;2022-09-09T02:10:12;19.20;99.90
27657;DHT22;15066;46.134;9.476;2022-09-09T02:12:47;19.10;99.90
27657;DHT22;15066;46.134;9.476;2022-09-09T02:15:17;19.10;99.90
27657;DHT22;15066;46.134;9.476;2022-09-09T02:17:42;19.20;99.90
27657;DHT22;15066;46.134;9.476;2022-09-09T02:20:12;19.20;99.90
27657;DHT22;15066;46.134;9.476;2022-09-09T02:22:42;19.20;99.90
27657;DHT22;15066;46.134;9.476;2022-09-09T02:25:13;19.10;99.90
27657;DHT22;15066;46.134;9.476;2022-09-09T02:27:43;19.00;99.90
27657;DHT22;15066;46.134;9.476;2022-09-09T02:30:12;19.00;99.90
27657;DHT22;15066;46.134;9.476;2022-09-09T02:32:42;19.00;99.90
27657;DHT22;15066;46.134;9.476;2022-09-09T02:35:17;18.90;99.90
27657;DHT22;15066;46.134;9.476;2022-09-09T02:37:45;18.90;99.90
27657;DHT22;15066;46.134;9.476;2022-09-09T02:40:14;19.00;99.90
27657;DHT22;15066;46.134;9.476;2022-09-09T02:42:45;19.00;99.90
27657;DHT22;15066;46.134;9.476;2022-09-09T02:45:16;19.00;99.90
27657;DHT22;15066;46.134;9.476;2022-09-09T02:48:14;19.00;99.90
27657;DHT22;15066;46.134;9.476;2022-09-09T02:50:53;18.90;99.90
27657;DHT22;15066;46.134;9.476;2022-09-09T02:53:18;18.90;99.90
27657;DHT22;15066;46.134;9.476;2022-09-09T02:56:12;19.00;99.90
27657;DHT22;15066;46.134;9.476;2022-09-09T02:58:39;19.00;99.90
27657;DHT22;15066;46.134;9.476;2022-09-09T03:01:06;19.10;99.90
27657;DHT22;15066;46.134;9.476;2022-09-09T03:03:35;19.00;99.90
27657;DHT22;15066;46.134;9.476;2022-09-09T03:06:03;19.00;99.90
27657;DHT22;15066;46.134;9.476;2022-09-09T03:08:32;19.00;99.90
27657;DHT22;15066;46.134;9.476;2022-09-09T03:11:00;19.00;99.90
27657;DHT22;15066;46.134;9.476;2022-09-09T03:13:29;19.10;99.90
27657;DHT22;15066;46.134;9.476;2022-09-09T03:15:56;19.10;99.90
27657;DHT22;15066;46.134;9.476;2022-09-09T03:18:24;19.20;99.90
27657;DHT22;15066;46.134;9.476;2022-09-09T03:20:51;19.20;99.90
27657;DHT22;15066;46.134;9.476;2022-09-09T03:23:20;19.20;99.90
27657;DHT22;15066;46.134;9.476;2022-09-09T03:25:49;19.10;99.90
27657;DHT22;15066;46.134;9.476;2022-09-09T03:28:18;19.00;99.90
27657;DHT22;15066;46.134;9.476;2022-09-09T03:30:47;19.00;99.90
27657;DHT22;15066;46.134;9.476;2022-09-09T03:33:15;18.90;99.90
27657;DHT22;15066;46.134;9.476;2022-09-09T03:35:47;18.80;99.90
27657;DHT22;15066;46.134;9.476;2022-09-09T03:38:15;18.80;99.90
27657;DHT22;15066;46.134;9.476;2022-09-09T03:40:53;18.80;99.90
27657;DHT22;15066;46.134;9.476;2022-09-09T03:43:26;18.70;99.90
27657;DHT22;15066;46.134;9.476;2022-09-09T03:45:54;18.70;99.90
27657;DHT22;15066;46.134;9.476;2022-09-09T03:48:26;18.70;99.90
27657;DHT22;15066;46.134;9.476;2022-09-09T03:50:55;18.60;99.90
27657;DHT22;15066;46.134;9.476;2022-09-09T03:53:25;18.70;99.90
27657;DHT22;15066;46.134;9.476;2022-09-09T03:55:55;18.70;99.90
27657;DHT22;15066;46.134;9.476;2022-09-09T03:58:25;18.70;99.90
27657;DHT22;15066;46.134;9.476;2022-09-09T04:00:58;18.60;99.90
27657;DHT22;15066;46.134;9.476;2022-09-09T04:03:27;18.60;99.90
27657;DHT22;15066;46.134;9.476;2022-09-09T04:05:57;18.50;99.90
27657;DHT22;15066;46.134;9.476;2022-09-09T04:08:25;18.50;99.90
27657;DHT22;15066;46.134;9.476;2022-09-09T04:10:54;18.40;99.90
27657;DHT22;15066;46.134;9.476;2022-09-09T04:13:24;18.30;99.90
27657;DHT22;15066;46.134;9.476;2022-09-09T04:15:55;18.30;99.90
27657;DHT22;15066;46.134;9.476;2022-09-09T04:18:24;18.30;99.90
27657;DHT22;15066;46.134;9.476;2022-09-09T04:20:53;18.30;99.90
27657;DHT22;15066;46.134;9.476;2022-09-09T04:23:24;18.20;99.90
27657;DHT22;15066;46.134;9.476;2022-09-09T04:25:54;18.20;99.90
27657;DHT22;15066;46.134;9.476;2022-09-09T04:28:24;18.20;99.90
27657;DHT22;15066;46.134;9.476;2022-09-09T04:30:51;18.20;99.90
27657;DHT22;15066;46.134;9.476;2022-09-09T04:33:19;18.10;99.90
27657;DHT22;15066;46.134;9.476;2022-09-09T04:35:50;18.10;99.90
27657;DHT22;15066;46.134;9.476;2022-09-09T04:38:20;18.10;99.90
27657;DHT22;15066;46.134;9.476;2022-09-09T04:40:52;18.10;99.90
27657;DHT22;15066;46.134;9.476;2022-09-09T04:43:20;18.10;99.90
27657;DHT22;15066;46.134;9.476;2022-09-09T04:45:51;18.00;99.90
27657;DHT22;15066;46.134;9.476;2022-09-09T04:48:19;18.00;99.90
27657;DHT22;15066;46.134;9.476;2022-09-09T04:51:05;17.90;99.90
27657;DHT22;15066;46.134;9.476;2022-09-09T04:53:33;17.80;99.90
27657;DHT22;15066;46.134;9.476;2022-09-09T04:56:14;17.60;99.90
27657;DHT22;15066;46.134;9.476;2022-09-09T04:58:39;17.50;99.90
27657;DHT22;15066;46.134;9.476;2022-09-09T05:01:14;17.50;99.90
27657;DHT22;15066;46.134;9.476;2022-09-09T05:03:42;17.50;99.90
27657;DHT22;15066;46.134;9.476;2022-09-09T05:06:14;17.60;99.90
27657;DHT22;15066;46.134;9.476;2022-09-09T05:08:43;17.70;99.90
27657;DHT22;15066;46.134;9.476;2022-09-09T05:11:25;17.60;99.90
27657;DHT22;15066;46.134;9.476;2022-09-09T05:13:54;17.70;99.90
27657;DHT22;15066;46.134;9.476;2022-09-09T05:16:22;17.80;99.90
27657;DHT22;15066;46.134;9.476;2022-09-09T05:18:50;17.80;99.90
27657;DHT22;15066;46.134;9.476;2022-09-09T05:21:20;17.80;99.90
27657;DHT22;15066;46.134;9.476;2022-09-09T05:23:48;17.80;99.90
27657;DHT22;15066;46.134;9.476;2022-09-09T05:26:19;17.80;99.90
27657;DHT22;15066;46.134;9.476;2022-09-09T05:28:48;17.90;99.90
27657;DHT22;15066;46.134;9.476;2022-09-09T05:31:17;17.90;99.90
27657;DHT22;15066;46.134;9.476;2022-09-09T05:33:46;18.00;99.90
27657;DHT22;15066;46.134;9.476;2022-09-09T05:36:16;17.90;99.90
27657;DHT22;15066;46.134;9.476;2022-09-09T05:38:45;17.90;99.90
27657;DHT22;15066;46.134;9.476;2022-09-09T05:41:13;17.90;99.90
27657;DHT22;15066;46.134;9.476;2022-09-09T05:43:45;17.90;99.90
27657;DHT22;15066;46.134;9.476;2022-09-09T05:46:16;17.90;99.90
27657;DHT22;15066;46.134;9.476;2022-09-09T05:48:45;17.90;99.90
27657;DHT22;15066;46.134;9.476;2022-09-09T05:51:19;17.80;99.90
27657;DHT22;15066;46.134;9.476;2022-09-09T05:53:48;17.80;99.90
27657;DHT22;15066;46.134;9.476;2022-09-09T05:56:22;17.70;99.90
27657;DHT22;15066;46.134;9.476;2022-09-09T05:58:52;17.70;99.90
27657;DHT22;15066;46.134;9.476;2022-09-09T06:01:31;17.70;99.90
27657;DHT22;15066;46.134;9.476;2022-09-09T06:03:59;17.70;99.90
27657;DHT22;15066;46.134;9.476;2022-09-09T06:06:31;17.80;99.90
27657;DHT22;15066;46.134;9.476;2022-09-09T06:09:02;17.80;99.90
27657;DHT22;15066;46.134;9.476;2022-09-09T06:11:32;17.90;99.90
27657;DHT22;15066;46.134;9.476;2022-09-09T06:14:00;17.90;99.90
27657;DHT22;15066;46.134;9.476;2022-09-09T06:16:29;17.90;99.90
27657;DHT22;15066;46.134;9.476;2022-09-09T06:18:59;17.90;99.90
27657;DHT22;15066;46.134;9.476;2022-09-09T06:21:31;17.90;99.90
27657;DHT22;15066;46.134;9.476;2022-09-09T06:23:59;17.80;99.90
27657;DHT22;15066;46.134;9.476;2022-09-09T06:26:32;17.90;99.90
27657;DHT22;15066;46.134;9.476;2022-09-09T06:29:01;18.00;99.90
27657;DHT22;15066;46.134;9.476;2022-09-09T06:31:32;18.00;99.90
27657;DHT22;15066;46.134;9.476;2022-09-09T06:34:00;18.00;99.90
27657;DHT22;15066;46.134;9.476;2022-09-09T06:36:30;18.00;99.90
27657;DHT22;15066;46.134;9.476;2022-09-09T06:38:59;18.00;99.90
27657;DHT22;15066;46.134;9.476;2022-09-09T06:41:29;18.00;99.90
27657;DHT22;15066;46.134;9.476;2022-09-09T06:43:57;18.10;99.90
27657;DHT22;15066;46.134;9.476;2022-09-09T06:46:29;18.20;99.90
27657;DHT22;15066;46.134;9.476;2022-09-09T06:48:59;18.20;99.90
27657;DHT22;15066;46.134;9.476;2022-09-09T06:51:28;18.20;99.90
27657;DHT22;15066;46.134;9.476;2022-09-09T06:53:58;18.20;99.90
27657;DHT22;15066;46.134;9.476;2022-09-09T06:56:31;18.20;99.90
27657;DHT22;15066;46.134;9.476;2022-09-09T06:59:02;18.20;99.90
27657;DHT22;15066;46.134;9.476;2022-09-09T07:01:37;18.30;99.90
27657;DHT22;15066;46.134;9.476;2022-09-09T07:04:03;18.40;99.90
27657;DHT22;15066;46.134;9.476;2022-09-09T07:06:36;18.50;99.90
27657;DHT22;15066;46.134;9.476;2022-09-09T07:09:07;18.60;99.90
27657;DHT22;15066;46.134;9.476;2022-09-09T07:11:40;18.70;99.90
27657;DHT22;15066;46.134;9.476;2022-09-09T07:14:08;18.80;99.90
27657;DHT22;15066;46.134;9.476;2022-09-09T07:16:38;18.90;99.90
27657;DHT22;15066;46.134;9.476;2022-09-09T07:19:09;18.90;99.90
27657;DHT22;15066;46.134;9.476;2022-09-09T07:21:37;19.00;99.90
27657;DHT22;15066;46.134;9.476;2022-09-09T07:24:07;19.00;99.90
27657;DHT22;15066;46.134;9.476;2022-09-09T07:26:37;19.40;99.90
27657;DHT22;15066;46.134;9.476;2022-09-09T07:29:05;19.90;99.90
27657;DHT22;15066;46.134;9.476;2022-09-09T07:31:36;20.30;99.90
27657;DHT22;15066;46.134;9.476;2022-09-09T07:34:05;20.90;99.90
27657;DHT22;15066;46.134;9.476;2022-09-09T07:36:39;22.00;99.90
27657;DHT22;15066;46.134;9.476;2022-09-09T07:39:07;23.00;96.00
27657;DHT22;15066;46.134;9.476;2022-09-09T07:41:41;24.10;90.40
27657;DHT22;15066;46.134;9.476;2022-09-09T07:44:17;24.70;76.20
27657;DHT22;15066;46.134;9.476;2022-09-09T07:46:45;24.50;72.80
27657;DHT22;15066;46.134;9.476;2022-09-09T07:49:14;24.60;70.50
27657;DHT22;15066;46.134;9.476;2022-09-09T07:51:44;24.70;66.10
27657;DHT22;15066;46.134;9.476;2022-09-09T07:54:14;25.00;67.70
27657;DHT22;15066;46.134;9.476;2022-09-09T07:56:42;25.10;64.20
27657;DHT22;15066;46.134;9.476;2022-09-09T07:59:10;25.30;67.00
27657;DHT22;15066;46.134;9.476;2022-09-09T08:01:41;24.90;65.40
27657;DHT22;15066;46.134;9.476;2022-09-09T08:04:12;24.50;66.90
27657;DHT22;15066;46.134;9.476;2022-09-09T08:06:49;23.40;67.10
27657;DHT22;15066;46.134;9.476;2022-09-09T08:09:16;23.30;72.10
27657;DHT22;15066;46.134;9.476;2022-09-09T08:11:44;23.90;69.60
27657;DHT22;15066;46.134;9.476;2022-09-09T08:14:12;23.80;67.80
27657;DHT22;15066;46.134;9.476;2022-09-09T08:16:43;23.60;69.10
27657;DHT22;15066;46.134;9.476;2022-09-09T08:19:11;23.70;67.40
27657;DHT22;15066;46.134;9.476;2022-09-09T08:21:39;23.90;67.70
27657;DHT22;15066;46.134;9.476;2022-09-09T08:24:08;24.00;64.60
27657;DHT22;15066;46.134;9.476;2022-09-09T08:26:44;24.00;66.70
27657;DHT22;15066;46.134;9.476;2022-09-09T08:29:13;24.30;67.90
27657;DHT22;15066;46.134;9.476;2022-09-09T08:31:43;24.60;67.70
27657;DHT22;15066;46.134;9.476;2022-09-09T08:34:14;24.30;65.00
27657;DHT22;15066;46.134;9.476;2022-09-09T08:36:44;23.80;68.80
27657;DHT22;15066;46.134;9.476;2022-09-09T08:39:14;23.20;68.60
27657;DHT22;15066;46.134;9.476;2022-09-09T08:42:08;23.00;71.30
27657;DHT22;15066;46.134;9.476;2022-09-09T08:45:04;22.70;70.30
27657;DHT22;15066;46.134;9.476;2022-09-09T08:50:31;22.40;66.70
27657;DHT22;15066;46.134;9.476;2022-09-09T08:53:22;22.80;73.80
27657;DHT22;15066;46.134;9.476;2022-09-09T08:55:53;22.70;71.80
27657;DHT22;15066;46.134;9.476;2022-09-09T08:58:27;22.70;68.00
27657;DHT22;15066;46.134;9.476;2022-09-09T09:04:02;22.40;69.80
27657;DHT22;15066;46.134;9.476;2022-09-09T09:06:37;22.50;72.20
27657;DHT22;15066;46.134;9.476;2022-09-09T09:09:20;22.50;68.60
27657;DHT22;15066;46.134;9.476;2022-09-09T09:11:51;22.50;70.60
27657;DHT22;15066;46.134;9.476;2022-09-09T09:14:24;22.40;71.10
27657;DHT22;15066;46.134;9.476;2022-09-09T09:17:05;22.20;72.40
27657;DHT22;15066;46.134;9.476;2022-09-09T09:19:35;22.20;70.00
27657;DHT22;15066;46.134;9.476;2022-09-09T09:25:02;22.10;69.50
27657;DHT22;15066;46.134;9.476;2022-09-09T09:30:22;22.00;68.10
27657;DHT22;15066;46.134;9.476;2022-09-09T09:32:59;21.90;68.60
27657;DHT22;15066;46.134;9.476;2022-09-09T09:35:27;22.10;70.90
27657;DHT22;15066;46.134;9.476;2022-09-09T09:37:54;22.10;70.70
27657;DHT22;15066;46.134;9.476;2022-09-09T09:40:23;22.00;70.40
27657;DHT22;15066;46.134;9.476;2022-09-09T09:42:59;22.10;70.30
27657;DHT22;15066;46.134;9.476;2022-09-09T09:45:40;22.10;69.20
27657;DHT22;15066;46.134;9.476;2022-09-09T09:48:09;22.20;68.70
27657;DHT22;15066;46.134;9.476;2022-09-09T09:50:54;22.20;67.70
27657;DHT22;15066;46.134;9.476;2022-09-09T09:53:25;22.10;67.50
27657;DHT22;15066;46.134;9.476;2022-09-09T09:56:02;22.00;69.40
27657;DHT22;15066;46.134;9.476;2022-09-09T09:58:32;22.00;70.30
27657;DHT22;15066;46.134;9.476;2022-09-09T10:01:01;21.90;68.90
27657;DHT22;15066;46.134;9.476;2022-09-09T10:03:32;21.80;67.70
27657;DHT22;15066;46.134;9.476;2022-09-09T10:06:02;21.80;66.00
27657;DHT22;15066;46.134;9.476;2022-09-09T10:08:33;21.90;67.40
27657;DHT22;15066;46.134;9.476;2022-09-09T10:11:21;21.90;65.90
27657;DHT22;15066;46.134;9.476;2022-09-09T10:14:22;22.00;64.00
27657;DHT22;15066;46.134;9.476;2022-09-09T10:17:16;22.20;66.10
27657;DHT22;15066;46.134;9.476;2022-09-09T10:19:51;22.30;62.90
27657;DHT22;15066;46.134;9.476;2022-09-09T10:25:17;22.70;62.40
27657;DHT22;15066;46.134;9.476;2022-09-09T10:28:10;22.80;62.60
27657;DHT22;15066;46.134;9.476;2022-09-09T10:33:13;22.90;61.30
27657;DHT22;15066;46.134;9.476;2022-09-09T10:35:54;23.00;61.10
27657;DHT22;15066;46.134;9.476;2022-09-09T10:41:16;23.10;60.70
27657;DHT22;15066;46.134;9.476;2022-09-09T10:43:55;23.20;62.30
27657;DHT22;15066;46.134;9.476;2022-09-09T10:54:45;23.50;60.90
27657;DHT22;15066;46.134;9.476;2022-09-09T10:57:24;23.70;60.50
27657;DHT22;15066;46.134;9.476;2022-09-09T10:59:53;23.80;59.60
27657;DHT22;15066;46.134;9.476;2022-09-09T11:02:27;23.80;57.30
27657;DHT22;15066;46.134;9.476;2022-09-09T11:07:43;24.00;56.80
27657;DHT22;15066;46.134;9.476;2022-09-09T11:13:05;24.20;63.60
27657;DHT22;15066;46.134;9.476;2022-09-09T11:15:42;24.20;60.70
27657;DHT22;15066;46.134;9.476;2022-09-09T11:18:13;24.40;63.40
27657;DHT22;15066;46.134;9.476;2022-09-09T11:20:42;24.50;62.70
27657;DHT22;15066;46.134;9.476;2022-09-09T11:23:13;24.50;63.20
27657;DHT22;15066;46.134;9.476;2022-09-09T11:25:47;24.60;63.90
27657;DHT22;15066;46.134;9.476;2022-09-09T11:37:07;24.80;59.50
27657;DHT22;15066;46.134;9.476;2022-09-09T11:39:56;24.90;58.80
27657;DHT22;15066;46.134;9.476;2022-09-09T11:42:22;24.90;65.90
27657;DHT22;15066;46.134;9.476;2022-09-09T11:44:51;24.80;58.40
27657;DHT22;15066;46.134;9.476;2022-09-09T11:47:29;24.80;60.80
27657;DHT22;15066;46.134;9.476;2022-09-09T11:52:47;25.00;62.20
27657;DHT22;15066;46.134;9.476;2022-09-09T11:55:27;25.00;58.70
27657;DHT22;15066;46.134;9.476;2022-09-09T11:58:05;25.10;61.80
27657;DHT22;15066;46.134;9.476;2022-09-09T12:00:44;25.10;64.30
27657;DHT22;15066;46.134;9.476;2022-09-09T12:08:57;25.10;60.20
27657;DHT22;15066;46.134;9.476;2022-09-09T12:11:29;25.20;62.50
27657;DHT22;15066;46.134;9.476;2022-09-09T12:13:59;25.20;66.70
27657;DHT22;15066;46.134;9.476;2022-09-09T12:16:33;25.30;65.60
27657;DHT22;15066;46.134;9.476;2022-09-09T12:21:48;25.20;66.00
27657;DHT22;15066;46.134;9.476;2022-09-09T12:24:18;25.10;59.30
27657;DHT22;15066;46.134;9.476;2022-09-09T12:26:55;25.20;61.00
27657;DHT22;15066;46.134;9.476;2022-09-09T12:29:27;25.20;61.30
27657;DHT22;15066;46.134;9.476;2022-09-09T12:32:11;25.20;63.30
27657;DHT22;15066;46.134;9.476;2022-09-09T12:37:51;25.30;60.90
27657;DHT22;15066;46.134;9.476;2022-09-09T12:40:30;25.30;63.60
27657;DHT22;15066;46.134;9.476;2022-09-09T12:42:54;25.40;62.00
27657;DHT22;15066;46.134;9.476;2022-09-09T12:45:27;25.30;60.10
27657;DHT22;15066;46.134;9.476;2022-09-09T12:48:04;25.40;59.10
27657;DHT22;15066;46.134;9.476;2022-09-09T12:50:31;25.40;59.50
27657;DHT22;15066;46.134;9.476;2022-09-09T12:53:02;25.40;62.30
27657;DHT22;15066;46.134;9.476;2022-09-09T12:55:32;25.40;61.10
27657;DHT22;15066;46.134;9.476;2022-09-09T12:58:01;25.40;61.80
27657;DHT22;15066;46.134;9.476;2022-09-09T13:00:31;25.40;61.50
27657;DHT22;15066;46.134;9.476;2022-09-09T13:03:02;25.40;59.60
27657;DHT22;15066;46.134;9.476;2022-09-09T13:05:38;25.50;62.90
27657;DHT22;15066;46.134;9.476;2022-09-09T13:08:11;25.50;63.30
27657;DHT22;15066;46.134;9.476;2022-09-09T13:10:42;25.40;62.60
27657;DHT22;15066;46.134;9.476;2022-09-09T13:13:26;25.50;63.30
27657;DHT22;15066;46.134;9.476;2022-09-09T13:15:51;25.50;64.60
27657;DHT22;15066;46.134;9.476;2022-09-09T13:18:22;25.60;60.10
27657;DHT22;15066;46.134;9.476;2022-09-09T13:20:51;25.60;59.70
27657;DHT22;15066;46.134;9.476;2022-09-09T13:23:20;25.70;59.20
27657;DHT22;15066;46.134;9.476;2022-09-09T13:25:59;25.80;60.30
27657;DHT22;15066;46.134;9.476;2022-09-09T13:28:31;25.90;58.20
27657;DHT22;15066;46.134;9.476;2022-09-09T13:31:04;25.90;55.80
27657;DHT22;15066;46.134;9.476;2022-09-09T13:33:37;26.00;55.60
27657;DHT22;15066;46.134;9.476;2022-09-09T13:36:07;26.10;59.90
27657;DHT22;15066;46.134;9.476;2022-09-09T13:41:19;26.10;59.30
27657;DHT22;15066;46.134;9.476;2022-09-09T13:43:48;26.10;56.10
27657;DHT22;15066;46.134;9.476;2022-09-09T13:46:36;26.10;56.20
27657;DHT22;15066;46.134;9.476;2022-09-09T13:51:41;26.30;55.20
27657;DHT22;15066;46.134;9.476;2022-09-09T13:54:12;26.30;55.70
27657;DHT22;15066;46.134;9.476;2022-09-09T13:56:42;26.30;54.30
27657;DHT22;15066;46.134;9.476;2022-09-09T13:59:12;26.30;53.00
27657;DHT22;15066;46.134;9.476;2022-09-09T14:01:40;26.30;53.80
27657;DHT22;15066;46.134;9.476;2022-09-09T14:04:09;26.30;55.30
27657;DHT22;15066;46.134;9.476;2022-09-09T14:06:37;26.30;55.30
27657;DHT22;15066;46.134;9.476;2022-09-09T14:09:07;26.30;55.50
27657;DHT22;15066;46.134;9.476;2022-09-09T14:11:34;26.40;56.80
27657;DHT22;15066;46.134;9.476;2022-09-09T14:14:02;26.40;56.50
27657;DHT22;15066;46.134;9.476;2022-09-09T14:16:30;26.40;55.30
27657;DHT22;15066;46.134;9.476;2022-09-09T14:18:57;26.30;55.50
27657;DHT22;15066;46.134;9.476;2022-09-09T14:21:27;26.40;58.50
27657;DHT22;15066;46.134;9.476;2022-09-09T14:23:55;26.30;58.20
27657;DHT22;15066;46.134;9.476;2022-09-09T14:26:24;26.20;59.00
27657;DHT22;15066;46.134;9.476;2022-09-09T14:28:52;26.10;57.20
27657;DHT22;15066;46.134;9.476;2022-09-09T14:31:19;26.10;59.30
27657;DHT22;15066;46.134;9.476;2022-09-09T14:33:47;26.10;60.50
27657;DHT22;15066;46.134;9.476;2022-09-09T14:36:15;26.00;60.90
27657;DHT22;15066;46.134;9.476;2022-09-09T14:38:42;25.90;60.50
27657;DHT22;15066;46.134;9.476;2022-09-09T14:41:12;25.90;62.00
27657;DHT22;15066;46.134;9.476;2022-09-09T14:43:42;25.90;63.30
27657;DHT22;15066;46.134;9.476;2022-09-09T14:46:12;25.80;63.80
27657;DHT22;15066;46.134;9.476;2022-09-09T14:48:40;25.80;63.30
27657;DHT22;15066;46.134;9.476;2022-09-09T14:51:10;25.80;62.90
27657;DHT22;15066;46.134;9.476;2022-09-09T14:53:40;25.80;63.30
27657;DHT22;15066;46.134;9.476;2022-09-09T14:56:13;25.80;64.60
27657;DHT22;15066;46.134;9.476;2022-09-09T14:58:41;25.70;63.60
27657;DHT22;15066;46.134;9.476;2022-09-09T15:01:12;25.70;66.90
27657;DHT22;15066;46.134;9.476;2022-09-09T15:03:41;25.70;67.30
27657;DHT22;15066;46.134;9.476;2022-09-09T15:06:12;25.60;66.30
27657;DHT22;15066;46.134;9.476;2022-09-09T15:08:45;25.60;65.80
27657;DHT22;15066;46.134;9.476;2022-09-09T15:11:14;25.50;66.10
27657;DHT22;15066;46.134;9.476;2022-09-09T15:13:43;25.50;67.60
27657;DHT22;15066;46.134;9.476;2022-09-09T15:16:16;25.50;68.80
27657;DHT22;15066;46.134;9.476;2022-09-09T15:18:45;25.50;68.20
27657;DHT22;15066;46.134;9.476;2022-09-09T15:21:16;25.40;67.60
27657;DHT22;15066;46.134;9.476;2022-09-09T15:23:45;25.40;68.70
27657;DHT22;15066;46.134;9.476;2022-09-09T15:26:17;25.40;68.40
27657;DHT22;15066;46.134;9.476;2022-09-09T15:28:46;25.40;68.40
27657;DHT22;15066;46.134;9.476;2022-09-09T15:33:52;25.30;69.20
27657;DHT22;15066;46.134;9.476;2022-09-09T15:36:25;25.20;68.70
27657;DHT22;15066;46.134;9.476;2022-09-09T15:38:53;25.20;69.60
27657;DHT22;15066;46.134;9.476;2022-09-09T15:41:22;25.10;69.80
27657;DHT22;15066;46.134;9.476;2022-09-09T15:43:52;25.10;68.70
27657;DHT22;15066;46.134;9.476;2022-09-09T15:46:36;25.00;65.80
27657;DHT22;15066;46.134;9.476;2022-09-09T15:49:10;25.00;69.00
27657;DHT22;15066;46.134;9.476;2022-09-09T15:51:41;24.90;66.70
27657;DHT22;15066;46.134;9.476;2022-09-09T15:54:11;24.90;66.70
27657;DHT22;15066;46.134;9.476;2022-09-09T15:56:40;24.90;69.60
27657;DHT22;15066;46.134;9.476;2022-09-09T15:59:09;24.80;69.30
27657;DHT22;15066;46.134;9.476;2022-09-09T16:01:37;24.80;70.80
27657;DHT22;15066;46.134;9.476;2022-09-09T16:04:05;24.70;71.10
27657;DHT22;15066;46.134;9.476;2022-09-09T16:06:33;24.70;69.50
27657;DHT22;15066;46.134;9.476;2022-09-09T16:09:02;24.60;69.10
27657;DHT22;15066;46.134;9.476;2022-09-09T16:11:33;24.60;69.10
27657;DHT22;15066;46.134;9.476;2022-09-09T16:14:02;24.60;68.20
27657;DHT22;15066;46.134;9.476;2022-09-09T16:16:33;24.50;68.30
27657;DHT22;15066;46.134;9.476;2022-09-09T16:19:09;24.50;69.30
27657;DHT22;15066;46.134;9.476;2022-09-09T16:21:35;24.40;67.10
27657;DHT22;15066;46.134;9.476;2022-09-09T16:24:05;24.50;69.60
27657;DHT22;15066;46.134;9.476;2022-09-09T16:26:35;24.50;69.50
27657;DHT22;15066;46.134;9.476;2022-09-09T16:29:03;24.40;71.70
27657;DHT22;15066;46.134;9.476;2022-09-09T16:31:31;24.30;72.30
27657;DHT22;15066;46.134;9.476;2022-09-09T16:33:59;24.20;73.00
27657;DHT22;15066;46.134;9.476;2022-09-09T16:36:29;24.20;73.90
27657;DHT22;15066;46.134;9.476;2022-09-09T16:38:59;24.10;72.40
27657;DHT22;15066;46.134;9.476;2022-09-09T16:41:28;24.10;72.90
27657;DHT22;15066;46.134;9.476;2022-09-09T16:44:01;24.00;73.60
27657;DHT22;15066;46.134;9.476;2022-09-09T16:46:31;24.00;70.70
27657;DHT22;15066;46.134;9.476;2022-09-09T16:49:02;24.00;72.20
27657;DHT22;15066;46.134;9.476;2022-09-09T16:51:33;23.90;71.60
27657;DHT22;15066;46.134;9.476;2022-09-09T16:54:03;23.90;69.70
27657;DHT22;15066;46.134;9.476;2022-09-09T16:56:36;23.90;69.90
27657;DHT22;15066;46.134;9.476;2022-09-09T16:59:17;23.90;70.10
27657;DHT22;15066;46.134;9.476;2022-09-09T17:01:42;23.90;70.10
27657;DHT22;15066;46.134;9.476;2022-09-09T17:04:13;23.90;73.50
27657;DHT22;15066;46.134;9.476;2022-09-09T17:06:45;23.80;74.20
27657;DHT22;15066;46.134;9.476;2022-09-09T17:09:13;23.70;75.30
27657;DHT22;15066;46.134;9.476;2022-09-09T17:11:40;23.50;75.60
27657;DHT22;15066;46.134;9.476;2022-09-09T17:14:11;23.40;76.30
27657;DHT22;15066;46.134;9.476;2022-09-09T17:16:39;23.20;74.50
27657;DHT22;15066;46.134;9.476;2022-09-09T17:19:07;23.20;74.50
27657;DHT22;15066;46.134;9.476;2022-09-09T17:21:38;23.20;76.80
27657;DHT22;15066;46.134;9.476;2022-09-09T17:24:06;23.10;76.30
27657;DHT22;15066;46.134;9.476;2022-09-09T17:26:34;23.00;77.90
27657;DHT22;15066;46.134;9.476;2022-09-09T17:29:03;22.90;74.70
27657;DHT22;15066;46.134;9.476;2022-09-09T17:31:31;22.90;76.00
27657;DHT22;15066;46.134;9.476;2022-09-09T17:34:00;22.90;77.10
27657;DHT22;15066;46.134;9.476;2022-09-09T17:36:32;22.80;74.50